Terminal Aerodrome Forecast
Issued by NWS

Home | Current Version | Previous Version | Text Only | Print | Product List | Glossary On
Versions: 1 2 3 4 5 6 7 8 9 10 11 12 13
000
FTUS42 KTBW 190535
TAFRSW
TAF
KRSW 190535Z 1906/2006 24011KT P6SM SCT025 BKN250
     FM190900 13003KT 6SM BR FEW005 SCT250
     FM191300 19004KT P6SM FEW005 SCT250
     FM191500 19010KT P6SM SCT250
     FM192200 22010KT P6SM BKN040
     FM200200 19003KT P6SM SCT040 SCT250=

USA.gov is the U.S. government's official web portal to all federal, state and local government web resources and services.